LiveATC.Net - Listen to live air traffic control over the Internet! Contact LiveATC.net for advertising information

Find LiveATC Audio Streams


Airport/ARTCC Code

Frequency
(e.g., 124.400, 128.75)
Site-wide search

Browse LiveATC Feeds
LiveATC Coverage Map
Top 50 LiveATC Feeds
Bad Weather Areas

LiveATC FAQ
Offer a LiveATC Feed
Contact LiveATC.net
Press Inquiries

LiveATC on iPhone
LiveATC on Android

LiveATC Mobile
(Mobile browser)

ATC Audio Archives
Interesting Recordings

LiveATC Forums

Home Page
About LiveATC.net
Make a Donation
LiveATC Bookstore

Terms of Use
Privacy Policy

ATC/Radar Sites
U.S. ARTCC Freqs
Canadian Air Freqs

AIRMETs/SIGMETs

FAA Airport Status
Nat'l Airspace Status
Arrival Demand Charts


Server Software By:
Icecast.org
Liquidsoap


Current Potentially Bad Weather Airports
(updated every 30 minutes - sorted alphabetically by ICAO code)



This page lists LiveATC.net airport areas that may be interesting to listen to because of challenging flying (weather) conditions. Challenging weather conditions include low ceilings, limited visibility, high or gusty winds, or thunderstorms. This is an evolving new feature and comments are welcome.

Updated: Thu Mar 5 15:40:01 UTC 2015
Click on airport name to go to that airport area's feeds.

BIKF Twr/App/Radar
WX MAP UNAVAILABLEBIKF 051500Z 23031KT 9999 VCSH FEW024CB 03/M04 Q0990
EYVI Twr/App/Misc
WX MAP UNAVAILABLEEYVI 051520Z 33008KT 4400 BR OVC006 00/00 Q1024 R20/2///95 NOSIG
KAAO CTAF
kaaoKAAO 051519Z AUTO 12007KT 2 1/2SM HZ CLR M05/M13 A3053 RMK AO2 T10501133
KACK Tower
kackKACK 051519Z 35013KT 1/2SM R06/4000FT SN FZFG VV006 M01/M02 A3004 RMK AO2 P0000 T10061017
KACY Twr/App/Mil
kacyKACY 051454Z 01008KT 1SM -SN BR BKN007 BKN011 OVC036 00/M01 A3008 RMK AO2 SFC VIS 1 1/4 RAE20SNB20 SLP187 P0006 60011 T00001006 50023
KAUS Del/Gnd/Twr/App #1
kausKAUS 051507Z 01024G35KT 10SM SCT024 01/M04 A3050 RMK AO2 PK WND 01035/1504 T00061039
KAVL Gnd/Twr/App
kavlKAVL 051511Z 35021G28KT 1 1/2SM +RA BR FEW007 OVC016 04/02 A2996 RMK AO2 PK WND 35028/1502 PRESRR P0006 T00390022
New York Approach (LOVES Sector)
kbdrKBDR 051452Z 34013KT 1 1/2SM -SN BR OVC018 M04/M06 A3014 RMK AO2 SLP205 P0002 60006 T10391056 53020
KNEL/KWRI/ZNY
kwriKWRI 051523Z AUTO 34014KT 1SM R06/5500FT -SN BR VV008 M01/M01 A3008 RMK AO2
KBLM/N12/3N6/KMJX
kmjxKMJX 051515Z AUTO 35010KT 3/4SM OVC006 01/M01 A3010 RMK AO1
KBLM/N12/3N6/KMJX
kblmKBLM 051515Z AUTO 01012KT 1/2SM OVC006 M01/M05 A3010 RMK AO1
KBNA Gnd/Twr/App
kbnaKBNA 051519Z 35011KT 2SM -SN BR OVC017 M06/M08 A3034 RMK AO2 P0000 $
MA/NH/RI/CT Area CTAF
ksfzKSFZ 051515Z 33008KT 2 1/2SM BKN018 OVC025 M03/M07 A3004 RMK AO1
MA/NH/RI/CT Area CTAF
kpymKPYM 051452Z AUTO 30007KT 1/2SM SN FZFG VV010 M02/M03 A3006 RMK AO2 SLP181 P0001 60008 T10221033 51030
KBUF Tower/App
kbufKBUF 051454Z 30008KT 4SM -SN OVC024 M13/M17 A3029 RMK AO2 SLP270 P0000 60000 T11281172 50012
Potomac App (DC ADIZ)
kbwiKBWI 051354Z 01006KT 3/4SM R10/3000V5000FT -SN BKN004 BKN010 OVC020 M01/M01 A3010 RMK AO2 SLP195 P0008 T10061011
KCDW Del/Gnd/Twr
kcdwKCDW 051453Z AUTO 36008KT 3/4SM -SN BR FEW010 OVC014 M03/M06 A3015 RMK AO2 SLP216 P0002 60005 T10331056 51036 TSNO
KCRE Tower
kcreKCRE 051513Z 22018KT 1/2SM FG VV002 14/13 A2999 RMK AO1 T01440128
KCRW Tower/Approach
kcrwKCRW 051454Z 35007KT 1SM -SN BR BKN007 OVC014 M05/M07 A3023 RMK AO2 SLP249 P0006 60012 T10501072 53027 RVRNO
KDCA Tower/Approach
kdcaKDCA 051508Z 36011KT 3/4SM R01/5000VP6000FT -SN FEW009 OVC018 01/M02 A3015 RMK AO2 P0001
KDXR Ground/Tower
kdxrKDXR 051453Z 36008KT 2SM -SN OVC023 M06/M09 A3012 RMK AO2 SLP205 P0001 60001 T10561094 51017
KESN Gnd/Twr
kesnKESN 051520Z 01008KT 1 1/2SM -SN BR OVC009 01/01 A3015
NY Departure (Liberty South)
kewrKEWR 051451Z 34018G23KT 3/4SM R04R/2400V3000FT -SN SCT003 BKN006 OVC011 M02/M03 A3014 RMK AO2 SLP206 PRESENT WX DRSN P0008 60021 T10221033 51035
KFDK Del/Gnd/Twr/CTAF
kfdkKFDK 051450Z 36006KT 1/4SM SN OVC007 M01/M03 A3016
KFRG Tower #2
kfrgKFRG 051453Z 02012KT 1/2SM SN FZFG VV011 M03/M05 A3013 RMK AO2 SLP203 P0001 60007 T10331050 51038
KGAI CTAF/UNICOM
kgaiKGAI 051515Z AUTO 32007KT 1SM OVC008 M02/M03 A3018 RMK AO1 P0001
KGSO Del/Gnd/Twr/App/ZTL
kgsoKGSO 051454Z 03008KT 1 1/2SM RA BR BKN008 OVC022 07/06 A2992 RMK AO2 SFC VIS 3 SLP131 P0011 60040 T00720061 52018
KHEF Del/Gnd/Twr
khefKHEF 051515Z 33009KT 3/4SM OVC008 M01/M01 A3016 RMK AO1 P0001
KHPN ATIS
khpnKHPN 051456Z 36007KT 1/2SM R16/3000V5000FT SN FZFG VV003 M04/M06 A3010 RMK AO2 SLP202 P0002 60006 T10441061 51033
KHRL Tower/CTAF
khrlKHRL 051452Z 34021G30KT 10SM OVC017 06/03 A3036 RMK AO2 PK WND 35034/1358 SLP279 60000 T00610033 51050
KHXD Ground/Tower
khxdKHXD 051450Z 21010G18KT 5SM BR OVC003 18/17 A3005
KHYA Twr/Cape App/ZBW/ZNY
khyaKHYA 051456Z 35013G19KT 3/4SM -SN BR BKN006 OVC012 M01/M02 A3003 RMK AO2 SLP169 P0003 60011 T10111022 51024
KIAD Del/Gnd
kiadKIAD 051502Z 34010KT 1/2SM R01R/2400V2800FT SN FZFG BKN007 OVC011 M02/M03 A3015 RMK AO2 P0001
KJYO CTAF/Del/SFRA
kjyoKJYO 051515Z AUTO 01012G18KT 1/2SM SN OVC007 M01/M01 A3017 RMK AO2
KILG Tower
kilgKILG 051505Z 01013KT 1/2SM R01/3500V6000FT SN FZFG BKN007 OVC012 M01/M01 A3012 RMK AO2 P0001 T10061011
KISP (NY Approach)
kispKISP 051456Z 36012KT 1SM R06/3000V4500FT -SN BR VV009 M03/M04 A3010 RMK AO2 SLP192 SNINCR 1/9 P0006 60020 T10331044 51036
KJFK NY App (CAMRN)
kjfkKJFK 051451Z 01016KT 3/4SM R04R/2800V4500FT -SN BR BKN007 OVC011 M02/M04 A3015 RMK AO2 SLP207 P0005 60015 T10221044 53037
KLBE Ground/Tower
klbeKLBE 051450Z 01010KT 2 1/2SM -SN BKN006 BKN027 OVC090 M09/M11 A3021
KLGA NY Approach (EMPYR)
klgaKLGA 051524Z 04007KT 1/4SM R04/2600V2800FT SN FZFG VV009 M03/M04 A3013 RMK AO2 P0004
KLNS Tower
klnsKLNS 051459Z 36008KT 1/4SM +SN FZFG VV009 M03/M04 A3010 RMK AO2 P0000 T10281039
KLZU Ground/Tower
klzuKLZU 051345Z 27008KT 3SM BR OVC003 13/09 A2991 RMK ATIS A ; RWY 25 ; BK
KMDT Harrisburg App East
kmdtKMDT 051456Z 36013G20KT 1/2SM R13/3000V5000FT SN FZFG BKN005 OVC011 M02/M03 A3013 RMK AO2 SLP206 SNINCR1/3 P0007 60016 T10221033 50022
KMMU ATIS
kmmuKMMU 051445Z 01007G13KT 3/4SM SN OVC008 M02/M03 A3014
KMTN Ground/Misc
kmtnKMTN 051445Z 31004KT 3/4SM -SN OVC007 01/00 A3014
KNGU Del/Gnd/Twr/App/ZDC
knguKNGU 051527Z 02019G25KT 1 3/4SM -RA BR OVC005 03/01 A3008 RMK AO2 T00330011
KOQU Ground/Tower
koquKOQU 051453Z 02012KT 1/2SM -SN BR OVC005 M02/M02 A3007
KORF Gnd/Twr/App/Radar
korfKORF 051509Z AUTO 01015KT 1SM R05/P6000FT -SN BR BKN004 BKN011 OVC019 02/01 A3006 RMK AO2 SFC VIS 1 1/4 UPB1454E00SNB00 P0000 T00220011 TSNO
KOXC Ground/Tower
koxcKOXC 051455Z 36006KT 4SM -SN BR SCT014 BKN020 OVC045 M06M11 A3009
KPDK Tower
kpdkKPDK 051503Z 31010G23KT 2SM -RA BR OVC003 06/05 A3001 RMK AO2 RAB1456 P0000
KPHL App (N/S Arrival)
kphlKPHL 051454Z 01013KT 1/2SM R09R/3000V3500FT SN FZFG BKN006 OVC011 M01/M02 A3013 RMK AO2 SLP203 P0006 60020 T10111022 51022
KPKB Gnd/Twr/Unicom
kpkbKPKB 051524Z 36006KT 3/4SM -SN FEW010 OVC017 M07/M10 A3030 RMK AO2 P0001 T10721100 RVRNO
KPNE Gnd/Twr/App
kpneKPNE 051454Z 01012KT 1/2SM SN VV010 M01/ A3014 RMK AO2 SLP206 P0005 60012 T1006 51022 RVRNO
KPNS/KNPA Del/Gnd/Twr/App
kpnsKPNS 051514Z 21005KT 7SM BKN002 OVC007 21/21 A3002 RMK AO2 RAE12 P0000 T02110206
KPNS/KNPA Del/Gnd/Twr/App
knpaKNPA 051502Z 21007KT 3SM -RA BR SCT002 OVC004 21/21 A3002 RMK AO2 P0000 T02060206 $
KPVD Del/Gnd/Twr/App
kpvdKPVD 051451Z 35007KT 3/4SM R05/2800V4500FT -SN BR VV011 M02/M04 A3008 RMK AO2 SLP186 SNINCR 1/18 P0005 60011 T10221039 53020
KRDG Tower/Approach
krdgKRDG 051454Z 03008KT 1/4SM R36/2000V2600FT +SN FZFG VV006 M05/M06 A3014 RMK AO2 SLP216 P0000 60000 T10501061 51020
KRDU Approach/Departure
krduKRDU 051517Z 04016G25KT 1 1/2SM RA BR BKN006 BKN015 OVC035 09/07 A2995 RMK AO2 SFC VIS 2 P0013
KTEB Tower
ktebKTEB 051525Z 34009G16KT 1/2SM R06/3000V4000FT +SN FZFG SCT006 OVC010 M03/M05 A3013 RMK AO2 P0004
KTTN Ground/Tower
kttnKTTN 051515Z 36012KT 3/4SM -SN BR FEW006 OVC010 M02/M04 A3011 RMK AO2 P0000 T10221039
KUUU CTAF/Clearance
kuuuKUUU 051527Z AUTO 34011G19KT 1SM -SN BR FEW007 OVC015 M03/M04 A3006 RMK AO2 P0001 T10281039
KVPZ CTAF/Clearance/App
kvpzKVPZ 051522Z AUTO 32008KT 3SM -SN FEW009 BKN016 M09/M12 A3041 RMK AO2 SNB09 P0000 T10891122 TSNO
LFLP Twr/App
WX MAP UNAVAILABLELFLP 051500Z AUTO 01021G35KT 340V050 9999 NSC 07/M06 Q1030
PAED Gnd/Twr
paedPAED 051523Z 00000KT 1/2SM R06/3000FT FZFG VV003 00/00 A2979 RMK AO2A
PALH Tower
palhPALH 051509Z 00000KT 1/4SM FG VV002 01/M01 A2981 RMK AO2 $
PAMR Ground/Tower
pamrPAMR 051507Z 00000KT 1/2SM FG VV002 01/M01 A2980 RMK AO2 VIS 1/4V1 T00061006
PANC Del/Gnd/Twr/App
pancPANC 051528Z 00000KT 1/4SM R07R/1600V1800FT FG VV002 01/M01 A2980 RMK AO2 $
RI Area Misc/USCG
kgonKGON 051522Z 31010KT 1/2SM R05/3000V4500FT SN FZFG FEW008 OVC013 M03/M04 A3010 RMK AO2 P0000 T10281039
RI Area Misc/USCG
kbidKBID 051515Z AUTO 33011G17KT 1SM OVC005 M02/M03 A3007 RMK AO1
TNCA Twr/Apron/FIR
WX MAP UNAVAILABLETNCA 051500Z 09020G30KT 050V120 6000 -SHRA SCT017TCU 25/23 Q1015 A2999 NOSIG
UNNT Gnd/Twr/App/Radar/Misc
WX MAP UNAVAILABLEUNNT 051500Z 33001MPS 9000 OVC043CB M09/M11 Q1028 25490245 16810160 NOSIG RMK QFE761/1015